createdAt,value
2019-02-26T00:01:00.591Z,22.61
2019-02-26T00:02:10.231Z,22.58
2019-02-26T00:03:31.268Z,22.58
2019-02-26T00:04:42.422Z,22.65
2019-02-26T00:05:59.802Z,22.57
2019-02-26T00:07:14.202Z,22.68
2019-02-26T00:08:37.952Z,22.54
2019-02-26T00:09:47.033Z,22.58
2019-02-26T00:11:06.539Z,22.57
2019-02-26T00:12:20.447Z,22.51
2019-02-26T00:13:39.052Z,22.64
2019-02-26T00:14:52.906Z,22.55
2019-02-26T00:16:15.321Z,22.54
2019-02-26T00:17:27.666Z,22.62
2019-02-26T00:18:42.602Z,22.55
2019-02-26T00:19:52.567Z,22.58
2019-02-26T00:21:07.320Z,22.52
2019-02-26T00:22:20.722Z,22.58
2019-02-26T00:23:32.806Z,22.58
2019-02-26T00:24:46.837Z,22.55
2019-02-26T00:25:56.607Z,22.57
2019-02-26T00:27:10.063Z,22.55
2019-02-26T00:28:24.388Z,22.43
2019-02-26T00:29:36.156Z,22.47
2019-02-26T00:30:47.132Z,22.54
2019-02-26T00:32:00.053Z,22.43
2019-02-26T00:33:09.961Z,22.42
2019-02-26T00:34:22.869Z,22.45
2019-02-26T00:35:32.497Z,22.42
2019-02-26T00:36:42.545Z,22.45
2019-02-26T00:37:58.070Z,22.43
2019-02-26T00:39:09.577Z,22.49
2019-02-26T00:40:22.832Z,22.37
2019-02-26T00:41:40.087Z,22.49
2019-02-26T00:42:56.987Z,22.43
2019-02-26T00:44:11.668Z,22.45
2019-02-26T00:45:27.187Z,22.43
2019-02-26T00:46:44.251Z,22.43
2019-02-26T00:47:54.121Z,22.42
2019-02-26T00:49:09.639Z,22.45
2019-02-26T00:50:21.168Z,22.39
2019-02-26T00:51:33.228Z,22.43
2019-02-26T00:52:44.634Z,22.39
2019-02-26T00:54:00.305Z,22.42
2019-02-26T00:55:13.708Z,22.4
2019-02-26T00:56:27.608Z,22.42
2019-02-26T00:57:47.275Z,22.39
2019-02-26T00:58:56.668Z,22.35
2019-02-26T01:00:10.629Z,22.33
2019-02-26T01:01:26.011Z,22.35
2019-02-26T01:02:35.589Z,22.36
2019-02-26T01:03:51.765Z,22.33
2019-02-26T01:05:00.985Z,22.33
2019-02-26T01:06:14.007Z,22.28
2019-02-26T01:07:28.548Z,22.28
2019-02-26T01:08:44.811Z,22.31
2019-02-26T01:09:59.911Z,22.28
2019-02-26T01:11:12.656Z,22.28
2019-02-26T01:12:24.382Z,22.33
2019-02-26T01:13:36.635Z,22.28
2019-02-26T01:14:50.801Z,22.21
2019-02-26T01:16:00.318Z,22.27
2019-02-26T01:17:12.639Z,22.28
2019-02-26T01:18:30.799Z,22.24
2019-02-26T01:19:45.223Z,22.2
2019-02-26T01:21:00.116Z,22.28
2019-02-26T01:22:11.567Z,22.25
2019-02-26T01:23:28.940Z,22.27
2019-02-26T01:24:38.510Z,22.25
2019-02-26T01:25:48.097Z,22.28
2019-02-26T01:27:01.583Z,22.27
2019-02-26T01:28:14.044Z,22.27
2019-02-26T01:29:34.394Z,22.24
2019-02-26T01:30:43.544Z,22.21
2019-02-26T01:31:56.541Z,22.22
2019-02-26T01:33:12.171Z,22.18
2019-02-26T01:34:24.744Z,22.18
2019-02-26T01:35:37.978Z,22.22
2019-02-26T01:36:51.952Z,22.21
2019-02-26T01:38:04.612Z,22.2
2019-02-26T01:39:21.423Z,22.22
2019-02-26T01:40:32.938Z,22.2
2019-02-26T01:41:56.194Z,22.18
2019-02-26T01:43:08.348Z,22.21
2019-02-26T01:44:17.157Z,22.2
2019-02-26T01:45:32.426Z,22.22
2019-02-26T01:46:45.328Z,22.25
2019-02-26T01:47:57.235Z,22.18
2019-02-26T01:49:09.340Z,22.21
2019-02-26T01:50:21.068Z,22.12
2019-02-26T01:51:32.803Z,22.17
2019-02-26T01:52:42.381Z,22.15
2019-02-26T01:53:55.821Z,22.07
2019-02-26T01:55:07.713Z,22.05
2019-02-26T01:56:17.705Z,22.03
2019-02-26T01:57:32.579Z,22.09
2019-02-26T01:58:42.173Z,22.1
2019-02-26T02:00:01.444Z,22.07
2019-02-26T02:01:19.138Z,22.15
2019-02-26T02:02:34.837Z,22.09
2019-02-26T02:03:48.586Z,22.06
2019-02-26T02:05:07.152Z,22.09
2019-02-26T02:06:20.686Z,22.06
2019-02-26T02:07:32.814Z,22.07
2019-02-26T02:08:50.389Z,22.05
2019-02-26T02:10:06.005Z,22.06
2019-02-26T02:11:15.754Z,22.06
2019-02-26T02:12:36.836Z,22.09
2019-02-26T02:13:48.728Z,22.09
2019-02-26T02:14:58.129Z,22.1
2019-02-26T02:16:11.251Z,21.99
2019-02-26T02:17:20.392Z,22.1
2019-02-26T02:18:32.474Z,22.09
2019-02-26T02:19:41.544Z,22.12
2019-02-26T02:20:51.383Z,21.98
2019-02-26T02:22:02.629Z,21.96
2019-02-26T02:23:11.548Z,22
2019-02-26T02:24:26.684Z,21.96
2019-02-26T02:25:43.321Z,22
2019-02-26T02:26:58.607Z,21.91
2019-02-26T02:28:10.554Z,22
2019-02-26T02:29:30.911Z,21.94
2019-02-26T02:30:43.815Z,21.98
2019-02-26T02:31:59.227Z,21.99
2019-02-26T02:33:17.190Z,21.96
2019-02-26T02:34:43.198Z,22.02
2019-02-26T02:35:53.129Z,21.96
2019-02-26T02:37:02.495Z,22
2019-02-26T02:38:11.386Z,22
2019-02-26T02:39:29.362Z,22
2019-02-26T02:40:43.145Z,22
2019-02-26T02:41:59.807Z,21.91
2019-02-26T02:43:17.998Z,21.86
2019-02-26T02:44:30.886Z,21.84
2019-02-26T02:45:39.841Z,21.94
2019-02-26T02:46:51.297Z,21.94
2019-02-26T02:48:09.108Z,22
2019-02-26T02:49:22.630Z,21.92
2019-02-26T02:50:32.292Z,21.86
2019-02-26T02:51:44.446Z,21.9
2019-02-26T02:53:01.426Z,22
2019-02-26T02:54:15.413Z,21.92
2019-02-26T02:55:29.203Z,21.9
2019-02-26T02:56:44.701Z,21.94
2019-02-26T02:58:02.792Z,21.94
2019-02-26T02:59:16.603Z,21.96
2019-02-26T03:00:34.445Z,21.94
2019-02-26T03:01:48.940Z,21.88
2019-02-26T03:03:04.211Z,21.92
2019-02-26T03:04:19.486Z,21.9
2019-02-26T03:05:43.935Z,21.84
2019-02-26T03:07:01.138Z,21.9
2019-02-26T03:08:19.454Z,21.86
2019-02-26T03:09:35.305Z,21.83
2019-02-26T03:10:50.828Z,21.92
2019-02-26T03:12:00.723Z,21.82
2019-02-26T03:13:10.167Z,21.91
2019-02-26T03:14:25.718Z,21.83
2019-02-26T03:15:43.705Z,21.86
2019-02-26T03:17:01.039Z,21.77
2019-02-26T03:18:19.100Z,21.72
2019-02-26T03:19:29.606Z,21.83
2019-02-26T03:20:46.154Z,21.84
2019-02-26T03:21:59.527Z,21.8
2019-02-26T03:23:19.906Z,21.77
2019-02-26T03:24:36.308Z,21.77
2019-02-26T03:25:52.824Z,21.74
2019-02-26T03:27:04.740Z,21.74
2019-02-26T03:28:13.785Z,21.72
2019-02-26T03:29:23.482Z,21.84
2019-02-26T03:30:46.994Z,21.8
2019-02-26T03:32:00.059Z,21.75
2019-02-26T03:33:09.521Z,21.84
2019-02-26T03:34:27.986Z,21.88
2019-02-26T03:35:37.703Z,21.84
2019-02-26T03:36:49.951Z,21.84
2019-02-26T03:38:05.779Z,21.84
2019-02-26T03:39:15.719Z,21.82
2019-02-26T03:40:32.931Z,21.84
2019-02-26T03:41:46.524Z,21.79
2019-02-26T03:43:01.940Z,21.8
2019-02-26T03:44:17.972Z,21.72
2019-02-26T03:45:29.568Z,21.74
2019-02-26T03:46:39.159Z,21.8
2019-02-26T03:47:48.525Z,21.75
2019-02-26T03:49:05.206Z,21.74
2019-02-26T03:50:14.257Z,21.79
2019-02-26T03:51:23.827Z,21.83
2019-02-26T03:52:36.383Z,21.77
2019-02-26T03:53:48.242Z,21.74
2019-02-26T03:54:57.552Z,21.72
2019-02-26T03:56:20.502Z,21.8
2019-02-26T03:57:29.937Z,21.71
2019-02-26T03:58:38.985Z,21.74
2019-02-26T03:59:48.307Z,21.74
2019-02-26T04:01:01.533Z,21.69
2019-02-26T04:02:25.703Z,21.75
2019-02-26T04:03:42.467Z,21.72
2019-02-26T04:05:00.582Z,21.75
2019-02-26T04:06:17.064Z,21.72
2019-02-26T04:07:33.320Z,21.74
2019-02-26T04:08:48.513Z,21.72
2019-02-26T04:10:03.468Z,21.71
2019-02-26T04:11:13.794Z,21.62
2019-02-26T04:12:29.619Z,21.68
2019-02-26T04:13:56.144Z,21.64
2019-02-26T04:15:06.276Z,21.67
2019-02-26T04:16:15.604Z,21.67
2019-02-26T04:17:33.131Z,21.65
2019-02-26T04:18:49.023Z,21.65
2019-02-26T04:20:02.534Z,21.67
2019-02-26T04:21:21.458Z,21.59
2019-02-26T04:22:31.576Z,21.64
2019-02-26T04:23:50.263Z,21.62
2019-02-26T04:25:11.237Z,21.65
2019-02-26T04:26:28.965Z,21.62
2019-02-26T04:27:46.401Z,21.61
2019-02-26T04:28:57.284Z,21.61
2019-02-26T04:30:10.884Z,21.67
2019-02-26T04:31:24.416Z,21.62
2019-02-26T04:32:36.239Z,21.65
2019-02-26T04:33:55.808Z,21.61
2019-02-26T04:35:11.447Z,21.64
2019-02-26T04:36:24.602Z,21.62
2019-02-26T04:37:38.565Z,21.61
2019-02-26T04:38:53.082Z,21.65
2019-02-26T04:40:14.109Z,21.61
2019-02-26T04:41:24.061Z,21.68
2019-02-26T04:42:37.642Z,21.58
2019-02-26T04:43:52.435Z,21.59
2019-02-26T04:45:14.072Z,21.61
2019-02-26T04:46:25.426Z,21.56
2019-02-26T04:47:44.019Z,21.59
2019-02-26T04:49:02.156Z,21.53
2019-02-26T04:50:14.061Z,21.53
2019-02-26T04:51:28.282Z,21.59
2019-02-26T04:52:45.827Z,21.53
2019-02-26T04:54:02.098Z,21.54
2019-02-26T04:55:11.481Z,21.58
2019-02-26T04:56:20.894Z,21.59
2019-02-26T04:57:30.062Z,21.53
2019-02-26T04:58:47.741Z,21.52
2019-02-26T05:00:01.220Z,21.61
2019-02-26T05:01:21.622Z,21.58
2019-02-26T05:02:31.228Z,21.54
2019-02-26T05:03:40.311Z,21.54
2019-02-26T05:04:49.569Z,21.62
2019-02-26T05:06:08.575Z,21.61
2019-02-26T05:07:23.281Z,21.54
2019-02-26T05:08:40.656Z,21.54
2019-02-26T05:10:01.758Z,21.56
2019-02-26T05:11:14.709Z,21.49
2019-02-26T05:12:44.807Z,21.49
2019-02-26T05:13:54.413Z,21.56
2019-02-26T05:15:03.235Z,21.49
2019-02-26T05:16:16.876Z,21.44
2019-02-26T05:17:33.368Z,21.49
2019-02-26T05:18:48.940Z,21.53
2019-02-26T05:20:09.466Z,21.47
2019-02-26T05:21:24.856Z,21.54
2019-02-26T05:22:40.752Z,21.44
2019-02-26T05:23:57.424Z,21.46
2019-02-26T05:25:19.747Z,21.49
2019-02-26T05:26:30.148Z,21.49
2019-02-26T05:27:47.505Z,21.61
2019-02-26T05:28:58.005Z,21.52
2019-02-26T05:30:13.011Z,21.49
2019-02-26T05:31:29.477Z,21.52
2019-02-26T05:32:44.506Z,21.46
2019-02-26T05:34:02.075Z,21.5
2019-02-26T05:35:12.086Z,21.47
2019-02-26T05:36:28.289Z,21.52
2019-02-26T05:37:45.603Z,21.49
2019-02-26T05:39:02.242Z,21.49
2019-02-26T05:40:22.189Z,21.46
2019-02-26T05:41:31.596Z,21.44
2019-02-26T05:42:40.938Z,21.38
2019-02-26T05:43:58.246Z,21.49
2019-02-26T05:45:16.080Z,21.38
2019-02-26T05:46:32.097Z,21.4
2019-02-26T05:47:42.892Z,21.46
2019-02-26T05:49:03.471Z,21.42
2019-02-26T05:50:24.246Z,21.47
2019-02-26T05:51:40.812Z,21.47
2019-02-26T05:53:01.673Z,21.42
2019-02-26T05:54:24.666Z,21.38
2019-02-26T05:55:34.237Z,21.43
2019-02-26T05:56:51.691Z,21.47
2019-02-26T05:58:01.128Z,21.4
2019-02-26T05:59:18.873Z,21.43
2019-02-26T06:00:37.290Z,21.38
2019-02-26T06:01:55.958Z,21.43
2019-02-26T06:03:15.496Z,21.38
2019-02-26T06:04:26.524Z,21.4
2019-02-26T06:05:41.060Z,21.4
2019-02-26T06:07:01.984Z,21.32
2019-02-26T06:08:12.083Z,21.37
2019-02-26T06:09:30.341Z,21.32
2019-02-26T06:10:41.131Z,21.37
2019-02-26T06:11:54.577Z,21.4
2019-02-26T06:13:10.557Z,21.42
2019-02-26T06:14:24.506Z,21.46
2019-02-26T06:15:40.629Z,21.4
2019-02-26T06:16:56.166Z,21.47
2019-02-26T06:18:05.749Z,21.43
2019-02-26T06:19:20.180Z,21.44
2019-02-26T06:20:36.573Z,21.35
2019-02-26T06:21:53.768Z,21.46
2019-02-26T06:23:03.872Z,21.43
2019-02-26T06:24:13.141Z,21.4
2019-02-26T06:25:29.332Z,21.46
2019-02-26T06:26:45.559Z,21.44
2019-02-26T06:27:55.684Z,21.43
2019-02-26T06:29:19.966Z,21.46
2019-02-26T06:30:34.476Z,21.42
2019-02-26T06:31:49.440Z,21.37
2019-02-26T06:33:08.967Z,21.4
2019-02-26T06:34:26.203Z,21.32
2019-02-26T06:35:41.001Z,21.37
2019-02-26T06:36:55.474Z,21.32
2019-02-26T06:38:11.617Z,21.38
2019-02-26T06:39:29.739Z,21.32
2019-02-26T06:40:51.430Z,21.46
2019-02-26T06:42:02.964Z,21.44
2019-02-26T06:43:17.373Z,21.37
2019-02-26T06:44:26.850Z,21.37
2019-02-26T06:45:40.387Z,21.37
2019-02-26T06:46:52.913Z,21.31
2019-02-26T06:48:05.168Z,21.31
2019-02-26T06:49:27.185Z,21.35
2019-02-26T06:50:43.572Z,21.28
2019-02-26T06:51:56.791Z,21.27
2019-02-26T06:53:13.622Z,21.32
2019-02-26T06:54:31.742Z,21.24
2019-02-26T06:55:41.309Z,21.24
2019-02-26T06:56:55.284Z,21.25
2019-02-26T06:58:05.063Z,21.21
2019-02-26T06:59:16.487Z,21.27
2019-02-26T07:00:31.838Z,21.22
2019-02-26T07:01:44.551Z,21.22
2019-02-26T07:02:54.399Z,21.12
2019-02-26T07:04:06.994Z,21.09
2019-02-26T07:05:23.791Z,21.13
2019-02-26T07:06:38.020Z,21.13
2019-02-26T07:07:47.201Z,21.04
2019-02-26T07:08:59.128Z,21.14
2019-02-26T07:10:08.874Z,21.12
2019-02-26T07:11:37.457Z,21.27
2019-02-26T07:12:51.266Z,21.32
2019-02-26T07:14:05.540Z,21.28
2019-02-26T07:15:17.300Z,21.43
2019-02-26T07:16:26.670Z,21.49
2019-02-26T07:17:42.876Z,21.54
2019-02-26T07:18:53.270Z,21.64
2019-02-26T07:20:05.830Z,21.79
2019-02-26T07:21:15.167Z,21.82
2019-02-26T07:22:24.541Z,21.88
2019-02-26T07:23:40.147Z,22.06
2019-02-26T07:24:56.208Z,22.07
2019-02-26T07:26:05.538Z,22.1
2019-02-26T07:27:18.608Z,22.24
2019-02-26T07:28:30.746Z,22.21
2019-02-26T07:29:49.739Z,22.25
2019-02-26T07:31:05.398Z,22.33
2019-02-26T07:32:24.604Z,22.39
2019-02-26T07:33:40.113Z,22.39
2019-02-26T07:34:54.683Z,22.47
2019-02-26T07:36:08.632Z,22.58
2019-02-26T07:37:20.541Z,22.58
2019-02-26T07:38:40.776Z,22.58
2019-02-26T07:39:56.552Z,22.72
2019-02-26T07:41:08.737Z,22.8
2019-02-26T07:42:21.412Z,22.83
2019-02-26T07:43:31.278Z,22.85
2019-02-26T07:44:49.183Z,22.97
2019-02-26T07:45:58.731Z,22.97
2019-02-26T07:47:13.293Z,23.01
2019-02-26T07:48:29.302Z,23.01
2019-02-26T07:49:40.904Z,23.05
2019-02-26T07:50:53.274Z,23.05
2019-02-26T07:52:10.617Z,23.15
2019-02-26T07:53:25.261Z,23.07
2019-02-26T07:54:34.661Z,23.15
2019-02-26T07:55:49.086Z,23.07
2019-02-26T07:57:04.735Z,23.16
2019-02-26T07:58:19.791Z,23.13
2019-02-26T07:59:36.808Z,23.1
2019-02-26T08:00:56.505Z,23.13
2019-02-26T08:02:11.248Z,23.04
2019-02-26T08:03:29.394Z,23.13
2019-02-26T08:04:43.650Z,23.05
2019-02-26T08:05:53.020Z,23.07
2019-02-26T08:07:06.756Z,23.07
2019-02-26T08:08:21.232Z,23.09
2019-02-26T08:09:31.143Z,23.02
2019-02-26T08:10:48.708Z,23.04
2019-02-26T08:12:01.988Z,22.91
2019-02-26T08:13:15.790Z,22.98
2019-02-26T08:14:27.956Z,22.91
2019-02-26T08:15:42.302Z,22.91
2019-02-26T08:16:59.310Z,22.92
2019-02-26T08:18:13.675Z,22.9
2019-02-26T08:19:23.390Z,22.92
2019-02-26T08:20:40.451Z,22.85
2019-02-26T08:21:54.929Z,22.86
2019-02-26T08:23:06.369Z,22.77
2019-02-26T08:24:24.364Z,22.79
2019-02-26T08:25:34.339Z,22.73
2019-02-26T08:26:49.717Z,22.79
2019-02-26T08:28:03.604Z,22.75
2019-02-26T08:29:16.441Z,22.7
2019-02-26T08:30:30.431Z,22.7
2019-02-26T08:31:42.508Z,22.65
2019-02-26T08:33:07.196Z,22.73
2019-02-26T08:34:20.421Z,22.73
2019-02-26T08:35:30.010Z,22.73
2019-02-26T08:36:39.712Z,22.61
2019-02-26T08:37:53.834Z,22.57
2019-02-26T08:39:03.487Z,22.57
2019-02-26T08:40:14.140Z,22.57
2019-02-26T08:41:23.392Z,22.61
2019-02-26T08:42:32.829Z,22.57
2019-02-26T08:43:49.133Z,22.67
2019-02-26T08:45:03.870Z,22.54
2019-02-26T08:46:18.478Z,22.55
2019-02-26T08:47:28.446Z,22.55
2019-02-26T08:48:39.384Z,22.57
2019-02-26T08:49:56.081Z,22.6
2019-02-26T08:51:21.466Z,22.55
2019-02-26T08:52:33.602Z,22.58
2019-02-26T08:53:44.440Z,22.54
2019-02-26T08:55:00.279Z,22.47
2019-02-26T08:56:13.062Z,22.51
2019-02-26T08:57:23.526Z,22.51
2019-02-26T08:58:33.212Z,22.57
2019-02-26T08:59:47.258Z,22.46
2019-02-26T09:00:59.677Z,22.4
2019-02-26T09:02:08.866Z,22.45
2019-02-26T09:03:22.624Z,22.4
2019-02-26T09:04:31.714Z,22.42
2019-02-26T09:05:46.774Z,22.49
2019-02-26T09:07:04.332Z,22.42
2019-02-26T09:08:18.351Z,22.47
2019-02-26T09:09:32.801Z,22.4
2019-02-26T09:10:46.958Z,22.39
2019-02-26T09:12:05.140Z,22.37
2019-02-26T09:13:20.610Z,22.42
2019-02-26T09:14:40.286Z,22.43
2019-02-26T09:15:55.567Z,22.35
2019-02-26T09:17:10.344Z,22.36
2019-02-26T09:18:31.123Z,22.37
2019-02-26T09:19:45.632Z,22.35
2019-02-26T09:20:56.931Z,22.42
2019-02-26T09:22:09.604Z,22.35
2019-02-26T09:23:33.173Z,22.39
2019-02-26T09:24:42.426Z,22.39
2019-02-26T09:26:02.516Z,22.37
2019-02-26T09:27:14.286Z,22.28
2019-02-26T09:28:29.431Z,22.31
2019-02-26T09:29:49.525Z,22.39
2019-02-26T09:31:09.577Z,22.35
2019-02-26T09:32:22.921Z,22.35
2019-02-26T09:33:40.935Z,22.31
2019-02-26T09:34:56.749Z,22.36
2019-02-26T09:36:21.411Z,22.3
2019-02-26T09:37:34.352Z,22.31
2019-02-26T09:38:49.466Z,22.28
2019-02-26T09:40:06.568Z,22.31
2019-02-26T09:41:21.278Z,22.36
2019-02-26T09:42:34.924Z,22.39
2019-02-26T09:43:48.186Z,22.35
2019-02-26T09:45:02.160Z,22.37
2019-02-26T09:46:21.167Z,22.39
2019-02-26T09:47:35.407Z,22.45
2019-02-26T09:48:49.323Z,22.46
2019-02-26T09:50:01.173Z,22.42
2019-02-26T09:51:16.780Z,22.36
2019-02-26T09:52:32.994Z,22.43
2019-02-26T09:53:42.610Z,22.51
2019-02-26T09:54:57.750Z,22.61
2019-02-26T09:56:07.114Z,22.6
2019-02-26T09:57:24.209Z,22.58
2019-02-26T09:58:37.468Z,22.6
2019-02-26T10:00:00.721Z,22.64
2019-02-26T10:01:18.126Z,22.6
2019-02-26T10:02:31.021Z,22.6
2019-02-26T10:03:43.734Z,22.68
2019-02-26T10:04:56.928Z,22.61
2019-02-26T10:06:06.820Z,22.61
2019-02-26T10:07:20.720Z,22.58
2019-02-26T10:08:34.225Z,22.54
2019-02-26T10:09:50.806Z,22.64
2019-02-26T10:11:06.719Z,22.62
2019-02-26T10:12:20.345Z,22.62
2019-02-26T10:13:32.203Z,22.64
2019-02-26T10:14:43.170Z,22.67
2019-02-26T10:15:56.726Z,22.73
2019-02-26T10:17:21.387Z,22.67
2019-02-26T10:18:35.449Z,22.68
2019-02-26T10:19:47.501Z,22.65
2019-02-26T10:21:00.039Z,22.6
2019-02-26T10:22:18.076Z,22.65
2019-02-26T10:23:34.281Z,22.6
2019-02-26T10:24:45.383Z,22.68
2019-02-26T10:26:02.787Z,22.67
2019-02-26T10:27:18.937Z,22.6
2019-02-26T10:28:30.038Z,22.58
2019-02-26T10:29:51.952Z,22.6
2019-02-26T10:31:09.759Z,22.68
2019-02-26T10:32:18.944Z,22.58
2019-02-26T10:33:31.545Z,22.58
2019-02-26T10:34:50.683Z,22.58
2019-02-26T10:36:00.618Z,22.55
2019-02-26T10:37:15.315Z,22.65
2019-02-26T10:38:29.477Z,22.57
2019-02-26T10:39:47.822Z,22.61
2019-02-26T10:41:05.088Z,22.61
2019-02-26T10:42:17.953Z,22.61
2019-02-26T10:43:27.357Z,22.55
2019-02-26T10:44:37.280Z,22.55
2019-02-26T10:45:54.817Z,22.52
2019-02-26T10:47:10.696Z,22.54
2019-02-26T10:48:27.897Z,22.58
2019-02-26T10:49:37.138Z,22.54
2019-02-26T10:50:54.002Z,22.61
2019-02-26T10:52:03.471Z,22.57
2019-02-26T10:53:22.631Z,22.55
2019-02-26T10:54:43.488Z,22.49
2019-02-26T10:55:53.732Z,22.55
2019-02-26T10:57:11.202Z,22.62
2019-02-26T10:58:22.075Z,22.46
2019-02-26T10:59:32.455Z,22.55
2019-02-26T11:00:42.975Z,22.42
2019-02-26T11:02:03.109Z,22.55
2019-02-26T11:03:20.093Z,22.43
2019-02-26T11:04:44.516Z,22.37
2019-02-26T11:06:01.171Z,22.47
2019-02-26T11:07:17.080Z,22.4
2019-02-26T11:08:35.022Z,22.43
2019-02-26T11:09:49.537Z,22.42
2019-02-26T11:11:04.700Z,22.42
2019-02-26T11:12:31.535Z,22.46
2019-02-26T11:13:53.810Z,22.46
2019-02-26T11:15:09.698Z,22.4
2019-02-26T11:16:33.000Z,22.42
2019-02-26T11:17:53.105Z,22.43
2019-02-26T11:19:07.570Z,22.4
2019-02-26T11:20:24.189Z,22.4
2019-02-26T11:21:39.737Z,22.45
2019-02-26T11:22:52.433Z,22.4
2019-02-26T11:24:06.543Z,22.39
2019-02-26T11:25:27.163Z,22.45
2019-02-26T11:26:43.860Z,22.37
2019-02-26T11:27:53.244Z,22.36
2019-02-26T11:29:03.081Z,22.4
2019-02-26T11:30:12.751Z,22.35
2019-02-26T11:31:30.206Z,22.4
2019-02-26T11:32:44.551Z,22.39
2019-02-26T11:33:56.207Z,22.31
2019-02-26T11:35:17.664Z,22.31
2019-02-26T11:36:40.818Z,22.35
2019-02-26T11:37:57.378Z,22.35
2019-02-26T11:39:16.295Z,22.37
2019-02-26T11:40:32.069Z,22.36
2019-02-26T11:41:41.949Z,22.37
2019-02-26T11:42:55.404Z,22.33
2019-02-26T11:44:25.718Z,22.4
2019-02-26T11:45:39.958Z,22.46
2019-02-26T11:46:58.605Z,22.43
2019-02-26T11:48:11.400Z,22.45
2019-02-26T11:49:25.903Z,22.4
2019-02-26T11:50:36.804Z,22.45
2019-02-26T11:51:49.763Z,22.46
2019-02-26T11:53:00.018Z,22.51
2019-02-26T11:54:17.669Z,22.55
2019-02-26T11:55:35.011Z,22.58
2019-02-26T11:56:52.579Z,22.6
2019-02-26T11:58:05.579Z,22.51
2019-02-26T11:59:23.914Z,22.64
2019-02-26T12:00:45.384Z,22.58
2019-02-26T12:02:03.868Z,22.6
2019-02-26T12:03:13.753Z,22.57
2019-02-26T12:04:23.064Z,22.58
2019-02-26T12:05:41.730Z,22.64
2019-02-26T12:06:51.414Z,22.62
2019-02-26T12:08:05.399Z,22.6
2019-02-26T12:09:20.508Z,22.7
2019-02-26T12:10:37.767Z,22.57
2019-02-26T12:11:48.731Z,22.6
2019-02-26T12:13:04.183Z,22.73
2019-02-26T12:14:21.577Z,22.6
2019-02-26T12:15:38.939Z,22.65
2019-02-26T12:16:50.996Z,22.65
2019-02-26T12:18:02.753Z,22.61
2019-02-26T12:19:15.317Z,22.7
2019-02-26T12:20:28.463Z,22.6
2019-02-26T12:21:41.928Z,22.62
2019-02-26T12:22:58.008Z,22.57
